Terminal Aerodrome Forecast
Issued by NWS Dallas/Fort Worth, TX

Home | Current Version | Previous Version | Text Only | Print | Product List | Glossary On
Versions: 1 2 3 4 5 6 7 8 9 10 11 12 13 14 15 16 17 18 19 20 21 22 23 24 25 26 27 28 29 30 31 32 33 34 35 36 37
000
FTUS44 KFWD 202139 AAC
TAFDFW
TAF AMD
KDFW 202139Z 2022/2124 36021KT 5SM SHRA VCTS BKN015CB
      TEMPO 2022/2101 1SM +RA BKN007
     FM210200 35017KT 5SM SHRA OVC007
     FM210600 35018KT P6SM VCSH OVC015
     FM211300 35015KT 6SM SHRA OVC008
     FM211600 36017KT 5SM SHRA VCTS OVC015CB
     FM212000 36015KT P6SM OVC012=

USA.gov is the U.S. government's official web portal to all federal, state and local government web resources and services.